createdAt,value
2019-02-07T03:30:18.520Z,11.10
2019-02-07T03:33:01.472Z,11.60
2019-02-07T03:35:35.605Z,11.20
2019-02-07T03:38:22.659Z,11.03
2019-02-07T03:41:10.104Z,10.83
2019-02-07T03:43:40.860Z,10.87
2019-02-07T03:46:14.751Z,11.13
2019-02-07T03:48:48.644Z,10.67
2019-02-07T03:51:22.550Z,11.13
2019-02-07T03:53:59.111Z,10.13
2019-02-07T03:56:29.875Z,10.60
2019-02-07T03:59:03.548Z,10.40
2019-02-07T04:01:46.350Z,10.03
2019-02-07T04:04:19.980Z,10.87
2019-02-07T04:06:59.509Z,10.43
2019-02-07T04:09:46.453Z,10.60
2019-02-07T04:12:22.912Z,9.70
2019-02-07T04:15:06.050Z,11.20
2019-02-07T04:17:39.897Z,10.57
2019-02-07T04:20:12.162Z,10.97
2019-02-07T04:22:42.922Z,10.40
2019-02-07T04:25:28.968Z,10.90
2019-02-07T04:28:17.880Z,9.80
2019-02-07T04:30:57.451Z,10.73
2019-02-07T04:33:28.202Z,9.90
2019-02-07T04:36:17.076Z,10.47
2019-02-07T04:38:53.631Z,11.00
2019-02-07T04:41:24.366Z,10.70
2019-02-07T04:44:01.683Z,10.43
2019-02-07T04:46:49.232Z,10.00
2019-02-07T04:49:25.702Z,10.20
2019-02-07T04:51:57.675Z,10.13
2019-02-07T04:54:28.435Z,10.37
2019-02-07T04:57:05.295Z,10.97
2019-02-07T04:59:41.633Z,10.20
2019-02-07T05:02:24.226Z,9.73
2019-02-07T05:05:03.806Z,9.57
2019-02-07T05:07:37.461Z,10.10
2019-02-07T05:10:23.551Z,10.33
2019-02-07T05:13:10.601Z,10.13
2019-02-07T05:15:41.363Z,10.47
2019-02-07T05:18:23.896Z,11.97
2019-02-07T05:20:54.660Z,11.50
2019-02-07T05:23:31.101Z,11.83
2019-02-07T05:26:03.059Z,11.07
2019-02-07T05:28:50.263Z,11.83
2019-02-07T05:31:24.280Z,11.20
2019-02-07T05:33:55.023Z,10.20
2019-02-07T05:36:42.482Z,10.20
2019-02-07T05:39:13.397Z,11.07
2019-02-07T05:41:50.140Z,10.67
2019-02-07T05:44:30.024Z,10.60
2019-02-07T05:47:06.578Z,10.37
2019-02-07T05:49:49.154Z,10.13
2019-02-07T05:52:25.683Z,9.90
2019-02-07T05:55:02.090Z,10.13
2019-02-07T05:57:36.739Z,10.43
2019-02-07T06:00:27.271Z,10.00
2019-02-07T06:03:16.228Z,10.23
2019-02-07T06:05:52.819Z,10.30
2019-02-07T06:08:29.450Z,9.47
2019-02-07T06:11:09.016Z,9.97
2019-02-07T06:13:56.246Z,9.83
2019-02-07T06:16:33.042Z,9.67
2019-02-07T06:19:06.863Z,9.83
2019-02-07T06:21:37.890Z,9.50
2019-02-07T06:24:24.756Z,9.67
2019-02-07T06:26:55.494Z,10.50
2019-02-07T06:29:38.147Z,9.77
2019-02-07T06:32:08.888Z,9.33
2019-02-07T06:34:45.380Z,9.30
2019-02-07T06:37:21.903Z,10.00
2019-02-07T06:39:58.467Z,10.07
2019-02-07T06:42:34.955Z,9.20
2019-02-07T06:45:11.299Z,10.20
2019-02-07T06:47:53.827Z,9.63
2019-02-07T06:50:57.693Z,9.57
2019-02-07T06:53:45.320Z,10.47
2019-02-07T06:56:25.120Z,10.63
2019-02-07T06:58:56.107Z,9.77
2019-02-07T07:01:26.859Z,10.43
2019-02-07T07:03:57.884Z,10.43
2019-02-07T07:06:29.814Z,9.83
2019-02-07T07:09:00.566Z,10.23
2019-02-07T07:11:39.307Z,10.23
2019-02-07T07:14:12.754Z,10.33
2019-02-07T07:16:43.687Z,10.40
2019-02-07T07:19:23.219Z,11.03
2019-02-07T07:22:10.398Z,11.00
2019-02-07T07:24:43.821Z,10.57
2019-02-07T07:27:23.494Z,10.57
2019-02-07T07:29:54.254Z,10.80
2019-02-07T07:32:25.011Z,10.37
2019-02-07T07:35:12.504Z,10.70
2019-02-07T07:38:01.974Z,10.93
2019-02-07T07:40:49.085Z,10.23
2019-02-07T07:43:30.450Z,10.73
2019-02-07T07:46:16.751Z,10.50
2019-02-07T07:48:47.811Z,10.77
2019-02-07T07:51:34.812Z,10.80
2019-02-07T07:54:11.583Z,10.63
2019-02-07T07:56:48.399Z,10.97
2019-02-07T07:59:19.158Z,10.80
2019-02-07T08:01:53.387Z,10.90
2019-02-07T08:04:26.848Z,10.90
2019-02-07T08:06:57.588Z,10.67
2019-02-07T08:09:46.926Z,11.57
2019-02-07T08:12:32.600Z,10.83
2019-02-07T08:15:12.983Z,10.87
2019-02-07T08:17:47.498Z,11.13
2019-02-07T08:20:16.182Z,10.50
2019-02-07T08:22:52.705Z,11.03
2019-02-07T08:25:39.266Z,10.57
2019-02-07T08:28:13.012Z,10.43
2019-02-07T08:30:43.747Z,10.13
2019-02-07T08:33:20.462Z,11.00
2019-02-07T08:36:09.610Z,10.10
2019-02-07T08:38:55.566Z,9.63
2019-02-07T08:41:42.989Z,10.33
2019-02-07T08:44:14.233Z,11.07
2019-02-07T08:46:48.024Z,10.70
2019-02-07T08:49:34.805Z,11.50
2019-02-07T08:52:22.471Z,10.83
2019-02-07T08:55:09.511Z,11.37
2019-02-07T08:57:52.150Z,12.27
2019-02-07T09:00:23.356Z,11.30
2019-02-07T09:02:59.852Z,11.93
2019-02-07T09:05:41.398Z,11.27
2019-02-07T09:08:28.666Z,11.37
2019-02-07T09:11:14.495Z,12.27
2019-02-07T09:14:00.116Z,11.73
2019-02-07T09:16:40.406Z,12.40
2019-02-07T09:19:13.906Z,11.83
2019-02-07T09:21:48.010Z,11.90
2019-02-07T09:24:18.751Z,12.47
2019-02-07T09:26:49.510Z,11.90
2019-02-07T09:29:26.465Z,12.63
2019-02-07T09:32:03.649Z,12.97
2019-02-07T09:34:40.314Z,13.00
2019-02-07T09:37:14.073Z,12.80
2019-02-07T09:39:45.903Z,12.13
2019-02-07T09:42:25.299Z,12.60
2019-02-07T09:45:12.062Z,13.00
2019-02-07T09:47:42.787Z,13.13
2019-02-07T09:50:16.527Z,12.83
2019-02-07T09:53:02.601Z,12.63
2019-02-07T09:55:51.640Z,13.40
2019-02-07T09:58:41.287Z,12.73
2019-02-07T10:01:23.925Z,13.93
2019-02-07T10:03:57.355Z,13.80
2019-02-07T10:06:44.306Z,14.03
2019-02-07T10:09:20.737Z,13.30
2019-02-07T10:11:51.492Z,14.47
2019-02-07T10:14:28.391Z,14.53
2019-02-07T10:17:08.398Z,14.47
2019-02-07T10:19:55.612Z,14.70
2019-02-07T10:22:29.757Z,14.90
2019-02-07T10:25:18.755Z,14.53
2019-02-07T10:27:52.466Z,14.37
2019-02-07T10:30:23.202Z,14.37
2019-02-07T10:33:08.945Z,16.10
2019-02-07T10:35:57.810Z,14.33
2019-02-07T10:38:45.259Z,14.53
2019-02-07T10:41:32.793Z,13.95
2019-02-07T10:44:09.627Z,14.27
2019-02-07T10:46:46.559Z,14.20
2019-02-07T10:49:32.578Z,14.60
2019-02-07T10:52:06.047Z,14.20
2019-02-07T10:54:42.763Z,14.00
2019-02-07T10:57:32.420Z,15.07
2019-02-07T11:00:21.879Z,14.43
2019-02-07T11:02:54.174Z,15.60
2019-02-07T11:05:43.259Z,14.60
2019-02-07T11:08:16.721Z,14.53
2019-02-07T11:11:06.122Z,14.57
2019-02-07T11:13:36.895Z,13.90
2019-02-07T11:16:24.079Z,14.10
2019-02-07T11:19:20.979Z,14.47
2019-02-07T11:22:01.427Z,12.57
2019-02-07T11:24:47.102Z,14.20
2019-02-07T11:27:17.846Z,13.60
2019-02-07T11:29:51.552Z,13.83
2019-02-07T11:32:22.624Z,13.37
2019-02-07T11:34:56.083Z,13.80
2019-02-07T11:37:26.840Z,15.10
2019-02-07T11:40:14.114Z,13.77
2019-02-07T11:42:54.108Z,13.93
2019-02-07T11:45:33.988Z,13.13
2019-02-07T11:48:22.914Z,13.47
2019-02-07T11:50:56.612Z,13.70
2019-02-07T11:53:30.323Z,13.23
2019-02-07T11:56:17.327Z,13.53
2019-02-07T11:58:48.473Z,13.63
2019-02-07T12:01:31.446Z,13.83
2019-02-07T12:04:17.402Z,14.10
2019-02-07T12:06:48.319Z,13.30
2019-02-07T12:09:19.074Z,13.80
2019-02-07T12:11:56.012Z,14.27
2019-02-07T12:14:43.235Z,13.70
2019-02-07T12:17:19.739Z,14.77
2019-02-07T12:20:02.426Z,14.90
2019-02-07T12:22:37.445Z,14.07
2019-02-07T12:25:14.665Z,16.30
2019-02-07T12:27:48.187Z,14.73
2019-02-07T12:30:36.781Z,16.00
2019-02-07T12:33:08.705Z,16.33
2019-02-07T12:35:55.878Z,17.67
2019-02-07T12:38:35.704Z,15.70
2019-02-07T12:41:07.977Z,16.07
2019-02-07T12:43:39.220Z,15.90
2019-02-07T12:46:22.036Z,16.57
2019-02-07T12:49:04.901Z,15.80
2019-02-07T12:51:51.249Z,15.37
2019-02-07T12:54:40.393Z,14.83
2019-02-07T12:57:23.059Z,14.77
2019-02-07T13:00:06.947Z,16.33
2019-02-07T13:02:50.009Z,15.77
2019-02-07T13:05:38.789Z,15.30
2019-02-07T13:08:24.643Z,16.43
2019-02-07T13:11:07.481Z,14.97
2019-02-07T13:13:50.207Z,15.80
2019-02-07T13:16:24.517Z,15.33
2019-02-07T13:18:58.024Z,16.03
2019-02-07T13:21:37.767Z,15.70
2019-02-07T13:24:24.856Z,15.67
2019-02-07T13:27:07.553Z,14.93
2019-02-07T13:29:38.330Z,16.10
2019-02-07T13:32:14.807Z,15.80
2019-02-07T13:34:57.866Z,15.87
2019-02-07T13:37:37.929Z,16.97
2019-02-07T13:40:20.314Z,17.17
2019-02-07T13:42:53.767Z,15.83
2019-02-07T13:45:37.011Z,16.33
2019-02-07T13:48:24.471Z,15.97
2019-02-07T13:50:55.397Z,16.27
2019-02-07T13:53:26.555Z,16.10
2019-02-07T13:56:06.679Z,15.57
2019-02-07T13:58:37.454Z,17.00
2019-02-07T14:01:26.460Z,16.70
2019-02-07T14:03:57.246Z,15.30
2019-02-07T14:06:33.535Z,16.10
2019-02-07T14:09:20.599Z,16.70
2019-02-07T14:11:58.297Z,15.70
2019-02-07T14:14:45.729Z,16.23
2019-02-07T14:17:32.945Z,16.47
2019-02-07T14:20:17.164Z,16.40
2019-02-07T14:23:03.249Z,15.90
2019-02-07T14:25:50.358Z,15.43
2019-02-07T14:28:27.544Z,16.10
2019-02-07T14:30:58.286Z,14.77
2019-02-07T14:33:47.523Z,14.97
2019-02-07T14:36:18.831Z,14.90
2019-02-07T14:38:49.573Z,15.87
2019-02-07T14:41:29.491Z,14.87
2019-02-07T14:44:06.240Z,15.67
2019-02-07T14:46:42.755Z,15.87
2019-02-07T14:49:12.186Z,15.50
2019-02-07T14:51:41.295Z,15.53
2019-02-07T14:54:10.623Z,15.77
2019-02-07T14:56:39.737Z,15.57
2019-02-07T14:59:08.830Z,15.10
2019-02-07T15:01:37.976Z,15.07
2019-02-07T15:04:07.077Z,15.17
2019-02-07T15:06:36.223Z,14.33
2019-02-07T15:09:08.578Z,14.73
2019-02-07T15:11:37.726Z,13.83
2019-02-07T15:14:06.834Z,14.63
2019-02-07T15:16:35.939Z,13.47
2019-02-07T15:19:05.083Z,15.17
2019-02-07T15:21:34.218Z,13.60
2019-02-07T15:24:04.575Z,14.50
2019-02-07T15:26:33.679Z,14.37
2019-02-07T15:29:04.546Z,13.43
2019-02-07T15:31:33.645Z,14.43
2019-02-07T15:34:04.594Z,14.57
2019-02-07T15:36:33.729Z,14.10
2019-02-07T15:39:07.253Z,13.90
2019-02-07T15:41:36.352Z,14.33
2019-02-07T15:44:05.456Z,14.60
2019-02-07T15:46:34.603Z,13.80
2019-02-07T15:49:04.089Z,13.77
2019-02-07T15:51:33.639Z,13.60
2019-02-07T15:54:03.602Z,14.60
2019-02-07T15:56:32.754Z,14.47
2019-02-07T15:59:14.486Z,14.67
2019-02-07T16:01:48.526Z,15.23
2019-02-07T16:04:19.271Z,14.23
2019-02-07T16:06:48.427Z,14.83
2019-02-07T16:09:17.892Z,14.13
2019-02-07T16:11:47.039Z,14.27
2019-02-07T16:14:16.190Z,15.07
2019-02-07T16:16:45.340Z,15.83
2019-02-07T16:19:14.522Z,15.10
2019-02-07T16:21:44.038Z,14.33
2019-02-07T16:24:15.849Z,15.27
2019-02-07T16:26:44.555Z,14.23
2019-02-07T16:29:13.703Z,14.07
2019-02-07T16:31:42.852Z,14.13
2019-02-07T16:34:12.132Z,15.00
2019-02-07T16:36:41.278Z,14.47
2019-02-07T16:39:10.426Z,15.00
2019-02-07T16:41:39.532Z,15.17
2019-02-07T16:44:08.934Z,14.30
2019-02-07T16:46:38.848Z,14.27
2019-02-07T16:49:08.322Z,14.83
2019-02-07T16:51:38.499Z,15.27
2019-02-07T16:54:07.638Z,15.37
2019-02-07T16:56:36.778Z,15.50
2019-02-07T16:59:05.876Z,16.27
2019-02-07T17:01:35.019Z,15.73
2019-02-07T17:04:04.712Z,15.00
2019-02-07T17:06:33.823Z,15.07
2019-02-07T17:09:06.994Z,15.37
2019-02-07T17:11:36.371Z,15.83
2019-02-07T17:14:06.147Z,15.40
2019-02-07T17:16:35.294Z,15.63
2019-02-07T17:19:04.774Z,16.60
2019-02-07T17:21:33.887Z,16.00
2019-02-07T17:24:03.035Z,15.60
2019-02-07T17:26:34.114Z,16.23
2019-02-07T17:29:03.519Z,18.63
2019-02-07T17:31:32.627Z,15.97
2019-02-07T17:34:02.330Z,16.97
2019-02-07T17:36:31.489Z,16.57
2019-02-07T17:39:00.582Z,16.60
2019-02-07T17:41:32.834Z,15.87
2019-02-07T17:44:03.344Z,15.57
2019-02-07T17:46:32.492Z,15.17
2019-02-07T17:49:03.379Z,15.83
2019-02-07T17:51:33.506Z,15.70
2019-02-07T17:54:02.903Z,15.20
2019-02-07T17:56:32.054Z,16.90
2019-02-07T17:59:01.157Z,16.50
2019-02-07T18:01:31.122Z,16.10
2019-02-07T18:04:00.275Z,16.43
2019-02-07T18:06:30.643Z,15.53
2019-02-07T18:08:59.787Z,17.17
2019-02-07T18:11:28.891Z,15.70
2019-02-07T18:13:58.039Z,16.37
2019-02-07T18:16:27.193Z,16.40
2019-02-07T18:18:56.291Z,16.50
2019-02-07T18:21:33.987Z,16.27
2019-02-07T18:23:56.248Z,15.80
2019-02-07T18:26:25.357Z,16.80
2019-02-07T18:28:54.466Z,17.93
2019-02-07T18:31:23.608Z,18.93
2019-02-07T18:33:52.983Z,17.50
2019-02-07T18:36:22.134Z,17.87
2019-02-07T18:38:51.279Z,18.13
2019-02-07T18:41:20.572Z,18.00
2019-02-07T18:43:49.723Z,18.27
2019-02-07T18:46:18.871Z,18.37
2019-02-07T18:48:48.757Z,19.60
2019-02-07T18:51:17.860Z,21.97
2019-02-07T18:53:47.009Z,21.00
2019-02-07T18:56:16.103Z,18.90
2019-02-07T18:58:45.204Z,18.47
2019-02-07T19:01:14.355Z,22.07
2019-02-07T19:03:43.455Z,20.97
2019-02-07T19:06:12.679Z,20.30
2019-02-07T19:08:41.847Z,17.43
2019-02-07T19:11:10.947Z,17.80
2019-02-07T19:13:40.051Z,19.13
2019-02-07T19:16:09.202Z,19.10
2019-02-07T19:18:38.979Z,17.70
2019-02-07T19:21:08.075Z,18.63
2019-02-07T19:23:37.218Z,17.70
2019-02-07T19:26:06.364Z,19.50
2019-02-07T19:28:35.458Z,17.77
2019-02-07T19:31:04.563Z,20.53
2019-02-07T19:33:34.035Z,19.60
2019-02-07T19:36:04.769Z,20.43
2019-02-07T19:38:36.977Z,24.77
2019-02-07T19:41:06.083Z,23.10
2019-02-07T19:43:35.432Z,23.03
2019-02-07T19:46:04.536Z,26.13
2019-02-07T19:48:33.643Z,29.03
2019-02-07T19:51:03.802Z,20.57
2019-02-07T19:53:32.914Z,17.03
2019-02-07T19:56:03.332Z,17.33
2019-02-07T19:58:32.428Z,17.07
2019-02-07T20:01:02.715Z,18.07
2019-02-07T20:03:31.869Z,19.87
2019-02-07T20:06:01.343Z,16.23
2019-02-07T20:08:31.415Z,17.13
2019-02-07T20:11:00.564Z,16.57
2019-02-07T20:13:29.664Z,15.53
2019-02-07T20:15:58.805Z,16.77
2019-02-07T20:18:27.951Z,16.50
2019-02-07T20:20:57.099Z,16.53
2019-02-07T20:23:26.201Z,15.57
2019-02-07T20:25:55.303Z,15.23
2019-02-07T20:28:24.458Z,16.00
2019-02-07T20:30:54.536Z,15.90
2019-02-07T20:33:23.701Z,16.53
2019-02-07T20:35:52.940Z,17.93
2019-02-07T20:38:22.740Z,17.00
2019-02-07T20:40:51.876Z,17.63
2019-02-07T20:43:20.975Z,17.73
2019-02-07T20:45:50.130Z,17.67
2019-02-07T20:48:19.262Z,17.73
2019-02-07T20:50:48.730Z,17.37
2019-02-07T20:53:17.913Z,15.67
2019-02-07T20:55:47.422Z,15.73
2019-02-07T20:58:16.528Z,17.67
2019-02-07T21:00:45.632Z,15.53
2019-02-07T21:03:14.771Z,15.70
2019-02-07T21:05:43.886Z,16.60
2019-02-07T21:08:13.058Z,16.23
2019-02-07T21:10:42.158Z,15.73
2019-02-07T21:13:11.265Z,15.07
2019-02-07T21:15:40.417Z,15.47
2019-02-07T21:18:09.526Z,13.93
2019-02-07T21:20:39.223Z,14.00
2019-02-07T21:23:08.335Z,12.73
2019-02-07T21:25:49.092Z,12.50
2019-02-07T21:28:18.191Z,12.13
2019-02-07T21:30:47.334Z,11.83
2019-02-07T21:33:16.478Z,12.10
2019-02-07T21:35:45.579Z,11.40
2019-02-07T21:38:14.790Z,11.73
2019-02-07T21:40:44.205Z,11.37
2019-02-07T21:43:13.747Z,11.07
2019-02-07T21:45:42.887Z,11.70
2019-02-07T21:48:11.991Z,11.10
2019-02-07T21:50:41.095Z,10.87
2019-02-07T21:53:11.309Z,10.97
2019-02-07T21:55:40.407Z,10.63
2019-02-07T21:58:09.684Z,10.87
2019-02-07T22:00:45.914Z,10.63
2019-02-07T22:03:15.995Z,10.10
2019-02-07T22:05:45.099Z,9.87
2019-02-07T22:08:14.230Z,10.47
2019-02-07T22:10:43.322Z,9.50
2019-02-07T22:13:12.829Z,9.10
2019-02-07T22:15:41.915Z,8.43
2019-02-07T22:18:11.039Z,8.53
2019-02-07T22:20:40.155Z,8.33
2019-02-07T22:23:09.269Z,8.67
2019-02-07T22:25:38.388Z,9.47
2019-02-07T22:28:07.974Z,9.93
2019-02-07T22:30:37.447Z,9.10
2019-02-07T22:33:07.680Z,9.37
2019-02-07T22:35:36.799Z,9.07
2019-02-07T22:38:06.171Z,16.87
2019-02-07T22:40:36.144Z,11.03
2019-02-07T22:43:05.620Z,10.20
2019-02-07T22:45:34.730Z,10.07
2019-02-07T22:48:03.999Z,9.27
2019-02-07T22:50:33.115Z,8.87
2019-02-07T22:53:02.438Z,9.27
2019-02-07T22:55:31.530Z,10.00
2019-02-07T22:58:00.650Z,9.60
2019-02-07T23:00:34.657Z,9.63
2019-02-07T23:03:17.487Z,9.13
2019-02-07T23:05:46.850Z,9.37
2019-02-07T23:08:15.949Z,9.23
2019-02-07T23:10:45.418Z,9.60
2019-02-07T23:13:14.807Z,9.03
